Map

Track Data

SID SEASON NUMBER BASIN SUBBASIN NAME ISO_TIME NATURE LAT LON WMO_WIND WMO_PRES WMO_AGENCY TRACK_TYPE DIST2LAND LANDFALL IFLAG USA_AGENCY USA_ATCF_ID USA_LAT USA_LON USA_RECORD USA_STATUS USA_WIND USA_PRES USA_SSHS USA_R34_NE USA_R34_SE USA_R34_SW USA_R34_NW USA_R50_NE USA_R50_SE USA_R50_SW USA_R50_NW USA_R64_NE USA_R64_SE USA_R64_SW USA_R64_NW USA_POCI USA_ROCI USA_RMW USA_EYE TOKYO_LAT TOKYO_LON TOKYO_GRADE TOKYO_WIND TOKYO_PRES TOKYO_R50_DIR TOKYO_R50_LONG TOKYO_R50_SHORT TOKYO_R30_DIR TOKYO_R30_LONG TOKYO_R30_SHORT TOKYO_LAND CMA_LAT CMA_LON CMA_CAT CMA_WIND CMA_PRES HKO_LAT HKO_LON HKO_CAT HKO_WIND HKO_PRES NEWDELHI_LAT NEWDELHI_LON NEWDELHI_GRADE NEWDELHI_WIND NEWDELHI_PRES NEWDELHI_CI NEWDELHI_DP NEWDELHI_POCI REUNION_LAT REUNION_LON REUNION_TYPE REUNION_WIND REUNION_PRES REUNION_TNUM REUNION_CI REUNION_RMW REUNION_R34_NE REUNION_R34_SE REUNION_R34_SW REUNION_R34_NW REUNION_R50_NE REUNION_R50_SE REUNION_R50_SW REUNION_R50_NW REUNION_R64_NE REUNION_R64_SE REUNION_R64_SW REUNION_R64_NW BOM_LAT BOM_LON BOM_TYPE BOM_WIND BOM_PRES BOM_TNUM BOM_CI BOM_RMW BOM_R34_NE BOM_R34_SE BOM_R34_SW BOM_R34_NW BOM_R50_NE BOM_R50_SE BOM_R50_SW BOM_R50_NW BOM_R64_NE BOM_R64_SE BOM_R64_SW BOM_R64_NW BOM_ROCI BOM_POCI BOM_EYE BOM_POS_METHOD BOM_PRES_METHOD NADI_LAT NADI_LON NADI_CAT NADI_WIND NADI_PRES WELLINGTON_LAT WELLINGTON_LON WELLINGTON_WIND WELLINGTON_PRES DS824_LAT DS824_LON DS824_STAGE DS824_WIND DS824_PRES TD9636_LAT TD9636_LON TD9636_STAGE TD9636_WIND TD9636_PRES TD9635_LAT TD9635_LON TD9635_WIND TD9635_PRES TD9635_ROCI NEUMANN_LAT NEUMANN_LON NEUMANN_CLASS NEUMANN_WIND NEUMANN_PRES MLC_LAT MLC_LON MLC_CLASS MLC_WIND MLC_PRES USA_GUST BOM_GUST BOM_GUST_PER REUNION_GUST REUNION_GUST_PER USA_SEAHGT USA_SEARAD_NE USA_SEARAD_SE USA_SEARAD_SW USA_SEARAD_NW STORM_SPEED STORM_DIR
2013019S12174 2013 5 SP MM GARRY 2013-01-18 12:00:00 TS -12.3000 173.900 main 698 653 O_____________ jtwc_sh SH102013 -12.3000 173.900 TD 25 1004 -1 11 105
2013019S12174 2013 5 SP MM GARRY 2013-01-18 15:00:00 TS -12.4351 174.430 main 653 593 P_____________ SH102013 -12.4351 174.430 TD 25 1004 -1 11 106
2013019S12174 2013 5 SP MM GARRY 2013-01-18 18:00:00 TS -12.6000 175.000 main 593 536 O_____________ jtwc_sh SH102013 -12.6000 175.000 TD 25 1004 -1 1008 150 15 12 108
2013019S12174 2013 5 SP MM GARRY 2013-01-18 21:00:00 TS -12.8074 175.635 main 536 476 P_____________ SH102013 -12.8074 175.635 TD 25 1004 -1 1008 150 15 13 108
2013019S12174 2013 5 SP MM GARRY 2013-01-19 00:00:00 TS -13.0000 176.300 main 476 438 O_____________ jtwc_sh SH102013 -13.0000 176.300 TD 25 1004 -1 1008 150 15 13 104
2013019S12174 2013 5 SP MM GARRY 2013-01-19 03:00:00 TS -13.1298 176.950 main 434 398 P_____________ SH102013 -13.1298 176.950 TD 25 1004 -1 1008 150 17 13 99
2013019S12174 2013 5 SP MM GARRY 2013-01-19 06:00:00 TS -13.2000 177.600 main 398 374 O_____________ jtwc_sh SH102013 -13.2000 177.600 TD 25 1004 -1 1008 150 20 13 94
2013019S12174 2013 5 SP MM GARRY 2013-01-19 09:00:00 TS -13.2149 178.265 main 370 349 P_____________ SH102013 -13.2149 178.265 TD 25 1004 -1 1007 150 20 13 90
2013019S12174 2013 5 SP MM GARRY 2013-01-19 12:00:00 TS -13.2000 178.900 main 349 338 O_____________ jtwc_sh SH102013 -13.2000 178.900 TD 25 1004 -1 1007 150 20 12 90
2013019S12174 2013 5 SP MM GARRY 2013-01-19 15:00:00 TS -13.2148 179.465 main 337 335 P_____________ SH102013 -13.2148 179.465 TD 27 1002 -1 1007 155 20 11 90
2013019S12174 2013 5 SP MM GARRY 2013-01-19 18:00:00 TS -13.2000 180.000 main 336 336 O_____________ jtwc_sh SH102013 -13.2000 -180.000 TD 30 1000 -1 1007 160 20 11 85
2013019S12174 2013 5 SP MM GARRY 2013-01-19 21:00:00 TS -13.1149 180.550 main 355 355 P_____________ SH102013 -13.1149 -179.450 TD 30 1000 -1 1007 160 20 11 79
2013019S12174 2013 5 SP MM GARRY 2013-01-20 00:00:00 TS -13.0000 181.100 main 380 380 O_____________ jtwc_sh SH102013 -13.0000 -178.900 TD 30 1000 -1 1007 160 20 11 78
2013019S12174 2013 5 SP MM GARRY 2013-01-20 03:00:00 TS -12.8924 181.650 main 412 412 P_____________ SH102013 -12.8924 -178.350 TD 30 1000 -1 1007 160 20 11 79
2013019S12174 2013 5 SP MM GARRY 2013-01-20 06:00:00 TS -12.8000 182.200 main 454 454 O_____________ jtwc_sh SH102013 -12.8000 -177.800 TD 30 1000 -1 1007 160 20 11 83
2013019S12174 2013 5 SP MM GARRY 2013-01-20 09:00:00 TS -12.7647 182.727 main 485 432 P_____________ SH102013 -12.7647 -177.273 TD 32 998 -1 1006 160 20 11 85
2013019S12174 2013 5 SP MM GARRY 2013-01-20 12:00:00 TS -12.7000 183.300 main 432 371 O_____________ jtwc_sh SH102013 -12.7000 -176.700 TS 35 996 0 1006 160 20 12 80
2013019S12174 2013 5 SP MM GARRY 2013-01-20 15:00:00 TS -12.5450 183.985 main 364 302 P_____________ SH102013 -12.5450 -176.015 TS 35 996 0 1006 160 20 14 74
2013019S12174 2013 5 SP MM GARRY 2013-01-20 18:00:00 TS -12.3000 184.700 main 302 265 O_____________ jtwc_sh SH102013 -12.3000 -175.300 TS 35 996 0 1006 160 20 15 66
2013019S12174 2013 5 SP MM GARRY 2013-01-20 21:00:00 TS -11.9348 185.358 main 265 246 P_____________ SH102013 -11.9348 -174.642 TS 35 996 0 1006 160 20 15 61
2013019S12174 2013 5 SP MM GARRY 2013-01-21 00:00:00 TS -11.6000 186.000 30 1002 nadi main 249 230 O_____________ jtwc_sh SH102013 -11.6000 -174.000 TS 35 996 0 1006 160 20 -11.6000 -174.000 -1 30 1002 14 71
2013019S12174 2013 5 SP MM GARRY 2013-01-21 03:00:00 TS -11.4810 186.697 main 230 223 P______I______ SH102013 -11.4325 -173.335 TS 35 996 0 1006 160 20 -11.5781 -173.237 -1 32 998 13 85
2013019S12174 2013 5 SP MM GARRY 2013-01-21 06:00:00 TS -11.4857 187.343 35 995 nadi main 223 213 O_____________ jtwc_sh SH102013 -11.4000 -172.700 TS 35 996 0 1006 160 20 -11.6000 -172.600 -1 35 995 11 95
2013019S12174 2013 5 SP MM GARRY 2013-01-21 09:00:00 TS -11.5723 187.863 main 215 208 P______I______ SH102013 -11.4399 -172.113 TS 37 994 0 1006 165 20 -11.7047 -172.162 -1 35 995 10 106
2013019S12174 2013 5 SP MM GARRY 2013-01-21 12:00:00 TS -11.7500 188.300 35 995 nadi main 215 199 O_____________ jtwc_sh SH102013 -11.6000 -171.600 TS 40 993 0 1006 170 20 -11.9000 -171.800 -1 35 995 10 119
2013019S12174 2013 5 SP MM GARRY 2013-01-21 15:00:00 TS -12.0425 188.747 main 206 202 P______I______ SH102013 -11.8699 -171.170 TS 40 993 0 1006 170 25 -12.2151 -171.335 -1 35 995 10 126
2013019S12174 2013 5 SP MM GARRY 2013-01-21 18:00:00 TS -12.3500 189.150 35 995 nadi main 210 202 O_____________ jtwc_sh SH102013 -12.2000 -170.800 TS 40 993 0 40 50 50 40 1006 170 30 -12.5000 -170.900 -1 35 995 9 124
2013019S12174 2013 5 SP MM GARRY 2013-01-21 21:00:00 TS -12.5550 189.513 main 221 221 P______I______ SH102013 -12.5300 -170.413 TS 42 991 0 40 50 50 40 1006 170 30 -12.5799 -170.562 -1 35 995 7 119
2013019S12174 2013 5 SP MM GARRY 2013-01-22 00:00:00 TS -12.7000 189.800 35 995 nadi main 243 243 O_____________ jtwc_sh SH102013 -12.8000 -170.100 TS 45 989 0 40 50 50 40 1006 170 30 -12.6000 -170.300 -1 35 995 5 119
2013019S12174 2013 5 SP MM GARRY 2013-01-22 03:00:00 TS -12.8187 189.998 main 258 258 P______I______ SH102013 -12.9299 -169.927 TS 45 989 0 45 47 47 45 1006 165 35 -12.7075 -170.078 -1 40 991 4 120
2013019S12174 2013 5 SP MM GARRY 2013-01-22 06:00:00 TS -12.9000 190.150 45 987 nadi main 264 264 O_____________ jtwc_sh SH102013 -13.0000 -169.800 TS 45 989 0 50 45 45 50 1006 160 40 -12.8000 -169.900 -1 45 987 4 115
2013019S12174 2013 5 SP MM GARRY 2013-01-22 09:00:00 TS -12.9650 190.325 main 281 281 P______I______ SH102013 -13.1300 -169.600 TS 45 989 0 50 45 45 50 1006 160 35 -12.8000 -169.750 -1 45 987 4 106
2013019S12174 2013 5 SP MM GARRY 2013-01-22 12:00:00 TS -13.0000 190.500 45 987 nadi main 302 302 O_____________ jtwc_sh SH102013 -13.2000 -169.400 TS 45 989 0 50 45 45 50 1006 160 30 -12.8000 -169.600 -1 45 987 3 91
2013019S12174 2013 5 SP MM GARRY 2013-01-22 15:00:00 TS -12.9700 190.671 main 323 323 P______I______ SH102013 -13.0775 -169.242 TS 45 989 0 50 45 45 50 1006 160 30 -12.8625 -169.415 -1 47 986 3 90
2013019S12174 2013 5 SP MM GARRY 2013-01-22 18:00:00 TS -13.0000 190.850 50 985 nadi main 344 342 O_____________ jtwc_sh SH102013 -13.0000 -169.100 TS 45 989 0 50 45 45 50 1006 160 30 -13.0000 -169.200 -1 50 985 4 127
2013019S12174 2013 5 SP MM GARRY 2013-01-22 21:00:00 TS -13.2387 191.035 main 350 349 P______I______ SH102013 -13.2274 -168.980 TS 45 989 0 50 45 45 50 1006 160 30 -13.2500 -168.950 -1 50 987 6 142
2013019S12174 2013 5 SP MM GARRY 2013-01-23 00:00:00 TS -13.5000 191.250 50 990 nadi main 379 368 O_____________ jtwc_sh SH102013 -13.5000 -168.800 TS 45 989 0 50 45 45 50 1006 160 30 -13.5000 -168.700 -1 50 990 6 134
2013019S12174 2013 5 SP MM GARRY 2013-01-23 03:00:00 TS -13.6498 191.476 main 400 399 P______I______ SH102013 -13.6176 -168.473 TS 45 989 0 50 45 45 50 1005 167 30 -13.6821 -168.575 -1 50 988 6 106
2013019S12174 2013 5 SP MM GARRY 2013-01-23 06:00:00 TS -13.6500 191.800 50 987 nadi main 432 432 O_____________ jtwc_sh SH102013 -13.6000 -168.100 TS 45 989 0 50 45 45 50 1005 175 30 -13.7000 -168.300 -1 50 987 9 74
2013019S12174 2013 5 SP MM GARRY 2013-01-23 09:00:00 TS -13.4080 192.341 main 487 487 P______I______ SH102013 -13.4149 -167.800 TS 45 989 0 50 45 45 50 1005 177 30 -13.4010 -167.519 -1 50 986 11 64
2013019S12174 2013 5 SP MM GARRY 2013-01-23 12:00:00 TS -13.1500 192.850 50 985 nadi main 556 554 O_____________ jtwc_sh SH102013 -13.2000 -167.500 TS 45 989 0 50 45 45 50 1005 180 30 -13.1000 -166.800 -1 50 985 7 68
2013019S12174 2013 5 SP MM GARRY 2013-01-23 15:00:00 TS -13.1335 193.036 main 566 566 P______I______ SH102013 -13.1049 -167.172 TS 45 989 0 45 42 40 42 1005 175 30 -13.1621 -166.755 -1 50 985 3 98
2013019S12174 2013 5 SP MM GARRY 2013-01-23 18:00:00 TS -13.2000 193.200 50 985 nadi main 586 586 O_____________ jtwc_sh SH102013 -13.1000 -166.800 TS 45 989 0 40 40 35 35 1005 170 30 -13.3000 -166.800 -1 50 985 6 96
2013019S12174 2013 5 SP MM GARRY 2013-01-23 21:00:00 TS -13.1913 193.598 main 630 630 P______I______ SH102013 -13.1625 -166.372 TS 50 985 0 42 42 37 37 1005 170 30 -13.2201 -166.432 -1 55 980 9 93
2013019S12174 2013 5 SP MM GARRY 2013-01-24 00:00:00 TS -13.2500 194.100 60 975 nadi main 683 683 O_____________ jtwc_sh SH102013 -13.3000 -165.900 TS 55 982 0 45 45 40 40 1005 170 30 -13.2000 -165.900 -1 60 975 10 106
2013019S12174 2013 5 SP MM GARRY 2013-01-24 03:00:00 TS -13.4738 194.621 main 735 735 P______I______ SH102013 -13.4774 -165.407 TS 60 978 0 50 50 45 45 1004 167 25 -13.4701 -165.350 -1 62 975 11 116
2013019S12174 2013 5 SP MM GARRY 2013-01-24 06:00:00 TS -13.7500 195.150 65 975 nadi main 788 788 O_____________ jtwc_sh SH102013 -13.7000 -164.900 TY 65 974 1 55 55 50 50 30 30 30 30 1004 165 20 -13.8000 -164.800 -1 65 975 11 116
2013019S12174 2013 5 SP MM GARRY 2013-01-24 09:00:00 TS -13.9460 195.618 main 842 842 P______I______ SH102013 -13.9424 -164.407 TY 65 974 1 65 57 52 60 30 30 30 30 1004 165 20 -13.9497 -164.357 -1 65 975 10 113
2013019S12174 2013 5 SP MM GARRY 2013-01-24 12:00:00 TS -14.1500 196.100 65 975 nadi main 896 896 O_____________ jtwc_sh SH102013 -14.2000 -163.900 TY 65 974 1 75 60 55 70 30 30 30 30 1004 165 20 -14.1000 -163.900 -1 65 975 11 113
2013019S12174 2013 5 SP MM GARRY 2013-01-24 15:00:00 TS -14.3913 196.675 main 962 962 P______I______ SH102013 -14.4350 -163.350 TY 72 968 1 75 62 57 67 32 32 30 30 1004 172 20 -14.3477 -163.300 -1 72 972 12 116
2013019S12174 2013 5 SP MM GARRY 2013-01-24 18:00:00 TS -14.7000 197.250 80 970 nadi main 1029 1018 O_____________ jtwc_sh SH102013 -14.7000 -162.800 TY 80 963 1 75 65 60 65 35 35 30 30 20 20 20 20 1004 180 20 -14.7000 -162.700 -1 80 970 13 125
2013019S12174 2013 5 SP MM GARRY 2013-01-24 21:00:00 TS -15.1361 197.755 main 1086 1086 P______I______ SH102013 -15.0725 -162.255 TY 82 961 1 85 85 70 77 37 40 32 32 22 22 22 22 1004 185 17 -15.1997 -162.235 -1 80 970 13 133
2013019S12174 2013 5 SP MM GARRY 2013-01-25 00:00:00 TS -15.5500 198.200 80 970 nadi main 1135 1135 O_____________ jtwc_sh SH102013 -15.4000 -161.800 TY 85 959 2 95 105 80 90 40 45 35 35 25 25 25 25 1004 190 15 -15.7000 -161.800 -1 80 970 11 128
2013019S12174 2013 5 SP MM GARRY 2013-01-25 03:00:00 TS -15.7875 198.624 main 1182 1182 P______I______ SH102013 -15.5148 -161.505 TY 82 961 1 110 117 85 115 42 47 37 37 25 25 25 25 1004 190 15 -16.0602 -161.248 -1 80 970 8 119
2013019S12174 2013 5 SP MM GARRY 2013-01-25 06:00:00 TS -15.9500 198.950 80 970 nadi main 1216 1216 O_____________ jtwc_sh SH102013 -15.6000 -161.300 TY 80 963 1 125 130 90 140 45 50 40 40 25 25 25 25 1004 190 15 -16.3000 -160.800 -1 80 970 6 125
2013019S12174 2013 5 SP MM GARRY 2013-01-25 09:00:00 TS -16.1286 199.130 main 1241 1241 P______I______ SH102013 -15.8275 -161.092 TY 77 965 1 125 130 90 140 45 50 40 40 25 25 25 25 1004 190 15 -16.4298 -160.647 -1 80 970 5 141
2013019S12174 2013 5 SP MM GARRY 2013-01-25 12:00:00 TS -16.3000 199.250 80 970 nadi main 1266 1255 O_____________ jtwc_sh SH102013 -16.1000 -160.900 TY 75 967 1 125 130 90 140 45 50 40 40 25 25 25 25 1004 190 15 -16.5000 -160.600 -1 80 970 4 138
2013019S12174 2013 5 SP MM GARRY 2013-01-25 15:00:00 TS -16.4375 199.425 main 1279 1279 P______I______ SH102013 -16.3200 -160.700 TY 70 970 1 122 125 90 115 45 47 42 42 1004 190 17 -16.5550 -160.450 -1 75 972 5 136
2013019S12174 2013 5 SP MM GARRY 2013-01-25 18:00:00 TS -16.6500 199.600 70 975 nadi main 1304 1307 O_____________ jtwc_sh SH102013 -16.6000 -160.500 TY 65 974 1 120 120 90 90 45 45 45 45 1004 190 20 -16.7000 -160.300 -1 70 975 7 151
2013019S12174 2013 5 SP MM GARRY 2013-01-25 21:00:00 TS -17.0187 199.758 main 1335 1335 P______I______ SH102013 -17.0050 -160.300 TY 60 978 0 120 120 90 90 45 45 45 45 1004 190 25 -17.0325 -160.185 -1 62 977 9 161
2013019S12174 2013 5 SP MM GARRY 2013-01-26 00:00:00 TS -17.5000 199.900 55 980 nadi main 1360 1360 O_____________ jtwc_sh SH102013 -17.5000 -160.100 TS 55 982 0 120 120 90 90 45 45 45 45 1004 190 30 -17.5000 -160.100 -1 55 980 10 168
2013019S12174 2013 5 SP MM GARRY 2013-01-26 03:00:00 TS -18.0161 199.988 main 1386 1386 P______I______ SH102013 -18.0124 -159.915 TS 52 983 0 110 110 87 87 40 40 40 40 1004 185 32 -18.0198 -160.109 -1 50 982 11 168
2013019S12174 2013 5 SP MM GARRY 2013-01-26 06:00:00 TS -18.6000 200.150 45 985 nadi main 1418 1418 O_____________ jtwc_sh SH102013 -18.6000 -159.700 TS 50 985 0 100 100 85 85 35 35 35 35 1004 180 35 -18.6000 -160.000 -1 45 985 13 156
2013019S12174 2013 5 SP MM GARRY 2013-01-26 09:00:00 TS -19.2129 200.557 main 1492 1492 P______I______ SH102013 -19.2627 -159.378 TS 50 985 0 100 100 85 85 35 35 35 35 1004 180 35 -19.1631 -159.508 -1 42 990 15 150
2013019S12174 2013 5 SP MM GARRY 2013-01-26 12:00:00 TS -19.9000 200.950 40 995 nadi main 1551 1551 O_____________ jtwc_sh SH102013 -20.0000 -159.100 TS 50 985 0 100 100 85 85 35 35 35 35 1004 180 35 -19.8000 -159.000 -1 40 995 15 162
2013019S12174 2013 5 SP MM GARRY 2013-01-26 15:00:00 TS -20.6810 201.049 main 1599 1599 P______I______ SH102013 -20.7848 -159.064 TS 47 987 0 95 95 80 80 1004 180 35 -20.5773 -158.839 -1 40 995 16 175
2013019S12174 2013 5 SP MM GARRY 2013-01-26 18:00:00 TS -21.5000 201.100 40 995 nadi main 1650 1650 O_____________ jtwc_sh SH102013 -21.6000 -159.000 TS 45 989 0 90 90 75 75 1004 180 35 -21.4000 -158.800 -1 40 995 17 171
2013019S12174 2013 5 SP MM GARRY 2013-01-26 21:00:00 TS -22.3426 201.331 main 1713 1713 P______I______ SH102013 -22.4453 -158.624 TS 42 991 0 90 90 75 75 1004 180 37 -22.2399 -158.715 -1 37 995 16 163
2013019S12174 2013 5 SP MM GARRY 2013-01-27 00:00:00 TS -23.0500 201.600 35 995 nadi main 1781 1781 O_____________ jtwc_sh SH102013 -23.2000 -158.200 TS 40 993 0 90 90 75 75 1004 180 40 -22.9000 -158.600 -1 35 995 12 158
2013019S12174 2013 5 SP MM GARRY 2013-01-27 03:00:00 TS -23.4599 201.827 main 1829 1829 P______I______ SH102013 -23.7673 -157.954 TS 37 994 0 90 90 75 75 1003 175 45 -23.1526 -158.392 -1 35 995 8 150
2013019S12174 2013 5 SP MM GARRY 2013-01-27 06:00:00 TS -23.7375 202.025 35 995 nadi main 1858 1858 O_______O_____ jtwc_sh SH102013 -24.2000 -157.800 TS 35 996 0 90 90 75 75 1003 170 50 -23.3000 -158.200 -1 35 995 -23.2000 -158.000 35 995 7 155
2013019S12174 2013 5 SP MM GARRY 2013-01-27 09:00:00 TS -24.0678 202.141 main 1892 1892 P______IP_____ SH102013 -24.5798 -157.729 TS 32 998 -1 1003 175 45 -23.6325 -158.115 -1 32 996 -23.4793 -157.861 37 995 8 156
2013019S12174 2013 5 SP MM GARRY 2013-01-27 12:00:00 TS -24.4625 202.375 30 997 nadi main 1942 1942 O_______O_____ jtwc_sh SH102013 -24.9000 -157.600 TD 30 1000 -1 1004 180 40 -24.1000 -158.100 -1 30 997 -24.0000 -157.500 40 996 12 144
2013019S12174 2013 5 SP MM GARRY 2013-01-27 15:00:00 TS -25.0395 202.909 main 2016 2016 P_______P_____ SH102013 -25.1679 -157.393 TD 30 1000 -1 -1 -24.9111 -156.790 40 998 18 139
2013019S12174 2013 5 SP MM GARRY 2013-01-27 18:00:00 ET -25.7857 203.657 40 1000 wellington main 2133 2133 O_______O_____ jtwc_sh SH102013 -25.5000 -156.800 EX 30 1000 -4 -1 -26.0000 -156.000 40 1000 21 141
2013019S12174 2013 5 SP MM GARRY 2013-01-27 21:00:00 ET -26.6641 204.351 main 2249 2249 P_______P_____ SH102013 -26.0030 -155.590 EX 30 1000 -4 -1 -26.9946 -155.679 40 997 24 145
2013019S12174 2013 5 SP MM GARRY 2013-01-28 00:00:00 ET -27.7200 205.200 40 995 wellington main 2379 2379 O_______O_____ jtwc_sh SH102013 -26.6000 -154.000 EX 30 1000 -4 -1 -28.0000 -155.000 40 995 32 138
2013019S12174 2013 5 SP MM GARRY 2013-01-28 03:00:00 NR -29.0046 206.773 main 2591 2591 ________P_____ SH102013 EX -4 -1 -29.0046 -153.227 42 994 40 124
2013019S12174 2013 5 SP MM GARRY 2013-01-28 06:00:00 NR -30.0000 209.000 45 993 wellington main 2829 2829 ________O_____ -1 -30.0000 -151.000 45 993 43 118
2013019S12174 2013 5 SP MM GARRY 2013-01-28 09:00:00 NR -31.0024 211.149 main 3052 3052 ________P_____ -1 -31.0024 -148.851 45 991 40 120
2013019S12174 2013 5 SP MM GARRY 2013-01-28 12:00:00 NR -32.0000 213.000 45 990 wellington main 3177 3177 ________O_____ -1 -32.0000 -147.000 45 990 30 129
2013019S12174 2013 5 SP MM GARRY 2013-01-28 15:00:00 NR -32.9080 213.875 main 3221 3217 ________P_____ -1 -32.9080 -146.125 45 990 26 140
2013019S12174 2013 5 SP MM GARRY 2013-01-28 18:00:00 NR -34.0000 215.000 45 991 wellington main 3277 3277 ________O_____ -1 -34.0000 -145.000 45 991 39 130
2013019S12174 2013 5 SP MM GARRY 2013-01-28 21:00:00 NR -35.4094 217.417 main 3441 3441 ________P_____ -1 -35.4094 -142.583 42 992 57 122
2013019S12174 2013 5 SP MM GARRY 2013-01-29 00:00:00 NR -37.0000 221.000 40 993 wellington main 3706 3706 ________O_____ -1 -37.0000 -139.000 40 993 73 116
2013019S12174 2013 5 SP MM GARRY 2013-01-29 03:00:00 NR -38.5824 225.648 main 3874 3705 ________P_____ -1 -38.5824 -134.352 40 993 84 111
2013019S12174 2013 5 SP MM GARRY 2013-01-29 06:00:00 NR -40.0000 231.000 40 993 wellington main 3693 ________O_____ -1 -40.0000 -129.000 40 993 87 109

Digital Typhoon Data and Search

About IBTrACS Database

This database is a web-friendly format of International Best Track Archive for Climate Stewardship (IBTrACS), a global best track data archive curated by NOAA dating back to 1842.

Updated: 2021-10-25